sensor_id;sensor_type;location;lat;lon;timestamp;pressure;altitude;pressure_sealevel;temperature;humidity
67931;BME280;63902;52.000;5.954;2023-12-04T00:00:23;100969.84;;;-0.17;100.00
67931;BME280;63902;52.000;5.954;2023-12-04T00:01:23;100975.06;;;-0.17;100.00
67931;BME280;63902;52.000;5.954;2023-12-04T00:02:24;100967.25;;;-0.17;100.00
67931;BME280;63902;52.000;5.954;2023-12-04T00:03:24;100973.34;;;-0.18;100.00
67931;BME280;63902;52.000;5.954;2023-12-04T00:04:25;100962.91;;;-0.18;100.00
67931;BME280;63902;52.000;5.954;2023-12-04T00:05:25;100964.63;;;-0.17;100.00
67931;BME280;63902;52.000;5.954;2023-12-04T00:06:26;100959.44;;;-0.17;100.00
67931;BME280;63902;52.000;5.954;2023-12-04T00:07:26;100966.41;;;-0.16;100.00
67931;BME280;63902;52.000;5.954;2023-12-04T00:08:27;100944.63;;;-0.28;100.00
67931;BME280;63902;52.000;5.954;2023-12-04T00:09:27;100967.28;;;-0.16;100.00
67931;BME280;63902;52.000;5.954;2023-12-04T00:10:27;100966.41;;;-0.16;100.00
67931;BME280;63902;52.000;5.954;2023-12-04T00:11:28;100967.25;;;-0.14;100.00
67931;BME280;63902;52.000;5.954;2023-12-04T00:12:30;100962.06;;;-0.16;100.00
67931;BME280;63902;52.000;5.954;2023-12-04T00:13:30;100962.06;;;-0.16;100.00
67931;BME280;63902;52.000;5.954;2023-12-04T00:14:31;100964.66;;;-0.16;100.00
67931;BME280;63902;52.000;5.954;2023-12-04T00:15:31;100967.28;;;-0.16;100.00
67931;BME280;63902;52.000;5.954;2023-12-04T00:16:33;100963.81;;;-0.16;100.00
67931;BME280;63902;52.000;5.954;2023-12-04T00:17:34;100962.94;;;-0.15;100.00
67931;BME280;63902;52.000;5.954;2023-12-04T00:18:34;100962.94;;;-0.15;100.00
67931;BME280;63902;52.000;5.954;2023-12-04T00:19:35;100961.19;;;-0.16;100.00
67931;BME280;63902;52.000;5.954;2023-12-04T00:20:35;100960.28;;;-0.17;100.00
67931;BME280;63902;52.000;5.954;2023-12-04T00:21:36;100951.59;;;-0.17;100.00
67931;BME280;63902;52.000;5.954;2023-12-04T00:22:37;100958.59;;;-0.16;100.00
67931;BME280;63902;52.000;5.954;2023-12-04T00:23:37;100942.94;;;-0.19;100.00
67931;BME280;63902;52.000;5.954;2023-12-04T00:24:38;100955.97;;;-0.18;100.00
67931;BME280;63902;52.000;5.954;2023-12-04T00:25:38;100943.78;;;-0.20;100.00
67931;BME280;63902;52.000;5.954;2023-12-04T00:26:39;100944.63;;;-0.20;100.00
67931;BME280;63902;52.000;5.954;2023-12-04T00:27:40;100942.94;;;-0.19;100.00
67931;BME280;63902;52.000;5.954;2023-12-04T00:28:41;100947.28;;;-0.18;100.00
67931;BME280;63902;52.000;5.954;2023-12-04T00:29:41;100944.63;;;-0.20;100.00
67931;BME280;63902;52.000;5.954;2023-12-04T00:30:42;100936.84;;;-0.21;100.00
67931;BME280;63902;52.000;5.954;2023-12-04T00:31:42;100947.28;;;-0.18;100.00
67931;BME280;63902;52.000;5.954;2023-12-04T00:32:43;100949.88;;;-0.18;100.00
67931;BME280;63902;52.000;5.954;2023-12-04T00:33:43;100946.41;;;-0.19;100.00
67931;BME280;63902;52.000;5.954;2023-12-04T00:34:44;100934.19;;;-0.23;100.00
67931;BME280;63902;52.000;5.954;2023-12-04T00:35:44;100942.94;;;-0.19;100.00
67931;BME280;63902;52.000;5.954;2023-12-04T00:36:44;100940.31;;;-0.21;100.00
67931;BME280;63902;52.000;5.954;2023-12-04T00:37:45;100942.06;;;-0.18;100.00
67931;BME280;63902;52.000;5.954;2023-12-04T00:38:45;100940.31;;;-0.18;100.00
67931;BME280;63902;52.000;5.954;2023-12-04T00:39:46;100943.78;;;-0.17;100.00
67931;BME280;63902;52.000;5.954;2023-12-04T00:40:47;100938.56;;;-0.17;100.00
67931;BME280;63902;52.000;5.954;2023-12-04T00:41:47;100930.75;;;-0.19;100.00
67931;BME280;63902;52.000;5.954;2023-12-04T00:42:49;100925.56;;;-0.19;100.00
67931;BME280;63902;52.000;5.954;2023-12-04T00:43:49;100926.41;;;-0.18;100.00
67931;BME280;63902;52.000;5.954;2023-12-04T00:44:50;100925.56;;;-0.19;100.00
67931;BME280;63902;52.000;5.954;2023-12-04T00:45:50;100935.13;;;-0.16;100.00
67931;BME280;63902;52.000;5.954;2023-12-04T00:46:51;100927.28;;;-0.18;100.00
67931;BME280;63902;52.000;5.954;2023-12-04T00:47:51;100931.63;;;-0.15;100.00
67931;BME280;63902;52.000;5.954;2023-12-04T00:48:52;100930.78;;;-0.16;100.00
67931;BME280;63902;52.000;5.954;2023-12-04T00:49:52;100934.25;;;-0.15;100.00
67931;BME280;63902;52.000;5.954;2023-12-04T00:50:54;100934.25;;;-0.15;100.00
67931;BME280;63902;52.000;5.954;2023-12-04T00:51:55;100929.03;;;-0.15;100.00
67931;BME280;63902;52.000;5.954;2023-12-04T00:52:55;100933.38;;;-0.14;100.00
67931;BME280;63902;52.000;5.954;2023-12-04T00:53:56;100928.16;;;-0.14;100.00
67931;BME280;63902;52.000;5.954;2023-12-04T00:54:56;100936.00;;;-0.16;100.00
67931;BME280;63902;52.000;5.954;2023-12-04T00:55:57;100926.44;;;-0.15;100.00
67931;BME280;63902;52.000;5.954;2023-12-04T00:56:57;100919.47;;;-0.16;100.00
67931;BME280;63902;52.000;5.954;2023-12-04T00:57:59;100919.50;;;-0.13;100.00
67931;BME280;63902;52.000;5.954;2023-12-04T00:58:59;100926.44;;;-0.14;100.00
67931;BME280;63902;52.000;5.954;2023-12-04T01:00:00;100928.16;;;-0.14;100.00
67931;BME280;63902;52.000;5.954;2023-12-04T01:01:00;100920.34;;;-0.14;100.00
67931;BME280;63902;52.000;5.954;2023-12-04T01:02:01;100920.31;;;-0.17;100.00
67931;BME280;63902;52.000;5.954;2023-12-04T01:03:01;100922.97;;;-0.16;100.00
67931;BME280;63902;52.000;5.954;2023-12-04T01:04:02;100918.59;;;-0.15;100.00
67931;BME280;63902;52.000;5.954;2023-12-04T01:05:03;100924.69;;;-0.16;100.00
67931;BME280;63902;52.000;5.954;2023-12-04T01:06:03;100920.34;;;-0.16;100.00
67931;BME280;63902;52.000;5.954;2023-12-04T01:07:04;100919.47;;;-0.19;100.00
67931;BME280;63902;52.000;5.954;2023-12-04T01:08:04;100920.31;;;-0.17;100.00
67931;BME280;63902;52.000;5.954;2023-12-04T01:09:05;100921.19;;;-0.18;100.00
67931;BME280;63902;52.000;5.954;2023-12-04T01:10:06;100924.69;;;-0.19;100.00
67931;BME280;63902;52.000;5.954;2023-12-04T01:11:07;100922.06;;;-0.21;100.00
67931;BME280;63902;52.000;5.954;2023-12-04T01:12:07;100918.59;;;-0.21;100.00
67931;BME280;63902;52.000;5.954;2023-12-04T01:13:09;100916.81;;;-0.23;100.00
67931;BME280;63902;52.000;5.954;2023-12-04T01:14:10;100918.59;;;-0.21;100.00
67931;BME280;63902;52.000;5.954;2023-12-04T01:15:10;100915.97;;;-0.21;100.00
67931;BME280;63902;52.000;5.954;2023-12-04T01:16:11;100920.31;;;-0.25;100.00
67931;BME280;63902;52.000;5.954;2023-12-04T01:17:11;100920.31;;;-0.24;100.00
67931;BME280;63902;52.000;5.954;2023-12-04T01:18:12;100915.97;;;-0.23;100.00
67931;BME280;63902;52.000;5.954;2023-12-04T01:19:12;100910.75;;;-0.21;100.00
67931;BME280;63902;52.000;5.954;2023-12-04T01:20:13;100919.44;;;-0.21;100.00
67931;BME280;63902;52.000;5.954;2023-12-04T01:21:13;100914.22;;;-0.23;100.00
67931;BME280;63902;52.000;5.954;2023-12-04T01:22:14;100909.88;;;-0.20;100.00
67931;BME280;63902;52.000;5.954;2023-12-04T01:23:14;100908.16;;;-0.21;100.00
67931;BME280;63902;52.000;5.954;2023-12-04T01:24:15;100909.88;;;-0.24;100.00
67931;BME280;63902;52.000;5.954;2023-12-04T01:25:16;100908.16;;;-0.25;100.00
67931;BME280;63902;52.000;5.954;2023-12-04T01:26:16;100910.75;;;-0.21;100.00
67931;BME280;63902;52.000;5.954;2023-12-04T01:27:16;100908.16;;;-0.21;100.00
67931;BME280;63902;52.000;5.954;2023-12-04T01:28:18;100903.78;;;-0.23;100.00
67931;BME280;63902;52.000;5.954;2023-12-04T01:29:19;100906.41;;;-0.21;100.00
67931;BME280;63902;52.000;5.954;2023-12-04T01:30:19;100907.28;;;-0.20;100.00
67931;BME280;63902;52.000;5.954;2023-12-04T01:31:20;100903.84;;;-0.19;100.00
67931;BME280;63902;52.000;5.954;2023-12-04T01:32:20;100897.72;;;-0.23;100.00
67931;BME280;63902;52.000;5.954;2023-12-04T01:33:21;100903.81;;;-0.18;100.00
67931;BME280;63902;52.000;5.954;2023-12-04T01:34:21;100897.75;;;-0.18;100.00
67931;BME280;63902;52.000;5.954;2023-12-04T01:35:22;100894.28;;;-0.19;100.00
67931;BME280;63902;52.000;5.954;2023-12-04T01:36:22;100890.78;;;-0.18;100.00
67931;BME280;63902;52.000;5.954;2023-12-04T01:37:23;100888.19;;;-0.19;100.00
67931;BME280;63902;52.000;5.954;2023-12-04T01:38:23;100893.41;;;-0.16;100.00
67931;BME280;63902;52.000;5.954;2023-12-04T01:39:23;100893.41;;;-0.16;100.00
67931;BME280;63902;52.000;5.954;2023-12-04T01:40:24;100880.38;;;-0.16;100.00
67931;BME280;63902;52.000;5.954;2023-12-04T01:41:24;100884.72;;;-0.15;100.00
67931;BME280;63902;52.000;5.954;2023-12-04T01:42:25;100890.78;;;-0.15;100.00
67931;BME280;63902;52.000;5.954;2023-12-04T01:43:27;100880.38;;;-0.16;100.00
67931;BME280;63902;52.000;5.954;2023-12-04T01:44:27;100882.13;;;-0.15;100.00
67931;BME280;63902;52.000;5.954;2023-12-04T01:45:28;100883.00;;;-0.16;100.00
67931;BME280;63902;52.000;5.954;2023-12-04T01:46:28;100872.56;;;-0.16;100.00
67931;BME280;63902;52.000;5.954;2023-12-04T01:47:29;100878.63;;;-0.16;100.00
67931;BME280;63902;52.000;5.954;2023-12-04T01:48:30;100883.00;;;-0.16;100.00
67931;BME280;63902;52.000;5.954;2023-12-04T01:49:31;100881.22;;;-0.17;100.00
67931;BME280;63902;52.000;5.954;2023-12-04T01:50:31;100877.75;;;-0.18;100.00
67931;BME280;63902;52.000;5.954;2023-12-04T01:51:32;100880.38;;;-0.16;100.00
67931;BME280;63902;52.000;5.954;2023-12-04T01:52:32;100869.94;;;-0.18;100.00
67931;BME280;63902;52.000;5.954;2023-12-04T01:53:35;100866.47;;;-0.18;100.00
67931;BME280;63902;52.000;5.954;2023-12-04T01:54:36;100867.34;;;-0.16;100.00
67931;BME280;63902;52.000;5.954;2023-12-04T01:55:37;100865.59;;;-0.17;100.00
67931;BME280;63902;52.000;5.954;2023-12-04T01:56:38;100864.72;;;-0.15;100.00
67931;BME280;63902;52.000;5.954;2023-12-04T01:57:38;100856.91;;;-0.19;100.00
67931;BME280;63902;52.000;5.954;2023-12-04T01:58:40;100876.03;;;-0.16;100.00
67931;BME280;63902;52.000;5.954;2023-12-04T01:59:41;100867.34;;;-0.16;100.00
67931;BME280;63902;52.000;5.954;2023-12-04T02:00:42;100869.94;;;-0.16;100.00
67931;BME280;63902;52.000;5.954;2023-12-04T02:01:42;100863.88;;;-0.15;100.00
67931;BME280;63902;52.000;5.954;2023-12-04T02:02:43;100869.06;;;-0.15;100.00
67931;BME280;63902;52.000;5.954;2023-12-04T02:03:43;100864.75;;;-0.16;100.00
67931;BME280;63902;52.000;5.954;2023-12-04T02:04:44;100862.13;;;-0.16;100.00
67931;BME280;63902;52.000;5.954;2023-12-04T02:05:44;100855.16;;;-0.17;100.00
67931;BME280;63902;52.000;5.954;2023-12-04T02:06:45;100855.16;;;-0.17;100.00
67931;BME280;63902;52.000;5.954;2023-12-04T02:07:45;100854.31;;;-0.19;100.00
67931;BME280;63902;52.000;5.954;2023-12-04T02:08:46;100854.31;;;-0.19;100.00
67931;BME280;63902;52.000;5.954;2023-12-04T02:09:47;100849.09;;;-0.18;100.00
67931;BME280;63902;52.000;5.954;2023-12-04T02:10:48;100852.56;;;-0.19;100.00
67931;BME280;63902;52.000;5.954;2023-12-04T02:11:48;100852.56;;;-0.19;100.00
67931;BME280;63902;52.000;5.954;2023-12-04T02:12:49;100846.47;;;-0.19;100.00
67931;BME280;63902;52.000;5.954;2023-12-04T02:13:51;100845.59;;;-0.18;100.00
67931;BME280;63902;52.000;5.954;2023-12-04T02:14:52;100847.34;;;-0.19;100.00
67931;BME280;63902;52.000;5.954;2023-12-04T02:15:54;100853.44;;;-0.18;100.00
67931;BME280;63902;52.000;5.954;2023-12-04T02:16:55;100849.06;;;-0.21;100.00
67931;BME280;63902;52.000;5.954;2023-12-04T02:17:56;100848.19;;;-0.23;100.00
67931;BME280;63902;52.000;5.954;2023-12-04T02:18:57;100843.84;;;-0.21;100.00
67931;BME280;63902;52.000;5.954;2023-12-04T02:19:58;100845.59;;;-0.21;100.00
67931;BME280;63902;52.000;5.954;2023-12-04T02:21:00;100842.97;;;-0.20;100.00
67931;BME280;63902;52.000;5.954;2023-12-04T02:22:00;100847.34;;;-0.19;100.00
67931;BME280;63902;52.000;5.954;2023-12-04T02:23:01;100839.53;;;-0.17;100.00
67931;BME280;63902;52.000;5.954;2023-12-04T02:24:04;100842.13;;;-0.17;100.00
67931;BME280;63902;52.000;5.954;2023-12-04T02:25:05;100835.16;;;-0.20;100.00
67931;BME280;63902;52.000;5.954;2023-12-04T02:26:10;100834.28;;;-0.27;100.00
67931;BME280;63902;52.000;5.954;2023-12-04T02:27:16;100838.66;;;-0.21;100.00
67931;BME280;63902;52.000;5.954;2023-12-04T02:28:19;100830.81;;;-0.23;100.00
67931;BME280;63902;52.000;5.954;2023-12-04T02:29:25;100831.69;;;-0.24;100.00
67931;BME280;63902;52.000;5.954;2023-12-04T02:30:29;100825.59;;;-0.24;100.00
67931;BME280;63902;52.000;5.954;2023-12-04T02:31:31;100822.97;;;-0.26;100.00
67931;BME280;63902;52.000;5.954;2023-12-04T02:32:37;100830.81;;;-0.26;100.00
67931;BME280;63902;52.000;5.954;2023-12-04T02:33:39;100823.84;;;-0.27;100.00
67931;BME280;63902;52.000;5.954;2023-12-04T02:34:41;100825.59;;;-0.26;100.00
67931;BME280;63902;52.000;5.954;2023-12-04T02:35:43;100828.19;;;-0.26;100.00
67931;BME280;63902;52.000;5.954;2023-12-04T02:36:44;100828.19;;;-0.26;100.00
67931;BME280;63902;52.000;5.954;2023-12-04T02:37:46;100825.59;;;-0.26;100.00
67931;BME280;63902;52.000;5.954;2023-12-04T02:38:47;100817.78;;;-0.26;100.00
67931;BME280;63902;52.000;5.954;2023-12-04T02:39:49;100816.03;;;-0.27;100.00
67931;BME280;63902;52.000;5.954;2023-12-04T02:40:50;100815.19;;;-0.27;100.00
67931;BME280;63902;52.000;5.954;2023-12-04T02:41:51;100809.94;;;-0.32;100.00
67931;BME280;63902;52.000;5.954;2023-12-04T02:42:51;100816.91;;;-0.28;100.00
67931;BME280;63902;52.000;5.954;2023-12-04T02:43:52;100816.91;;;-0.28;100.00
67931;BME280;63902;52.000;5.954;2023-12-04T02:44:52;100816.91;;;-0.26;100.00
67931;BME280;63902;52.000;5.954;2023-12-04T02:45:52;100808.25;;;-0.25;100.00
67931;BME280;63902;52.000;5.954;2023-12-04T02:46:53;100816.91;;;-0.28;100.00
67931;BME280;63902;52.000;5.954;2023-12-04T02:47:53;100811.72;;;-0.28;100.00
67931;BME280;63902;52.000;5.954;2023-12-04T02:48:54;100806.47;;;-0.29;100.00
67931;BME280;63902;52.000;5.954;2023-12-04T02:49:54;100797.75;;;-0.34;100.00
67931;BME280;63902;52.000;5.954;2023-12-04T02:50:55;100799.50;;;-0.32;100.00
67931;BME280;63902;52.000;5.954;2023-12-04T02:51:55;100796.91;;;-0.32;100.00
67931;BME280;63902;52.000;5.954;2023-12-04T02:52:56;100799.53;;;-0.30;100.00
67931;BME280;63902;52.000;5.954;2023-12-04T02:53:56;100797.78;;;-0.31;100.00
67931;BME280;63902;52.000;5.954;2023-12-04T02:54:58;100796.06;;;-0.31;100.00
67931;BME280;63902;52.000;5.954;2023-12-04T02:55:58;100797.78;;;-0.30;100.00
67931;BME280;63902;52.000;5.954;2023-12-04T02:56:59;100790.84;;;-0.29;100.00
67931;BME280;63902;52.000;5.954;2023-12-04T02:57:59;100796.91;;;-0.29;100.00
67931;BME280;63902;52.000;5.954;2023-12-04T02:59:00;100789.09;;;-0.29;100.00
67931;BME280;63902;52.000;5.954;2023-12-04T03:00:00;100787.38;;;-0.30;100.00
67931;BME280;63902;52.000;5.954;2023-12-04T03:01:00;100787.38;;;-0.30;100.00
67931;BME280;63902;52.000;5.954;2023-12-04T03:02:01;100789.09;;;-0.29;100.00
67931;BME280;63902;52.000;5.954;2023-12-04T03:03:02;100779.53;;;-0.34;100.00
67931;BME280;63902;52.000;5.954;2023-12-04T03:04:02;100783.03;;;-0.31;100.00
67931;BME280;63902;52.000;5.954;2023-12-04T03:05:03;100783.03;;;-0.31;100.00
67931;BME280;63902;52.000;5.954;2023-12-04T03:06:05;100779.53;;;-0.30;100.00
67931;BME280;63902;52.000;5.954;2023-12-04T03:07:05;100776.94;;;-0.33;100.00
67931;BME280;63902;52.000;5.954;2023-12-04T03:08:06;100780.41;;;-0.32;100.00
67931;BME280;63902;52.000;5.954;2023-12-04T03:09:06;100779.53;;;-0.30;100.00
67931;BME280;63902;52.000;5.954;2023-12-04T03:10:09;100778.66;;;-0.29;100.00
67931;BME280;63902;52.000;5.954;2023-12-04T03:11:09;100779.53;;;-0.28;100.00
67931;BME280;63902;52.000;5.954;2023-12-04T03:12:09;100776.94;;;-0.28;100.00
67931;BME280;63902;52.000;5.954;2023-12-04T03:13:10;100771.72;;;-0.28;100.00
67931;BME280;63902;52.000;5.954;2023-12-04T03:14:10;100774.34;;;-0.27;100.00
67931;BME280;63902;52.000;5.954;2023-12-04T03:15:11;100770.00;;;-0.29;100.00
67931;BME280;63902;52.000;5.954;2023-12-04T03:16:15;100772.63;;;-0.28;100.00
67931;BME280;63902;52.000;5.954;2023-12-04T03:17:15;100769.09;;;-0.28;100.00
67931;BME280;63902;52.000;5.954;2023-12-04T03:18:16;100769.09;;;-0.28;100.00
67931;BME280;63902;52.000;5.954;2023-12-04T03:19:16;100764.78;;;-0.29;100.00
67931;BME280;63902;52.000;5.954;2023-12-04T03:20:17;100762.16;;;-0.29;100.00
67931;BME280;63902;52.000;5.954;2023-12-04T03:21:17;100764.78;;;-0.28;100.00
67931;BME280;63902;52.000;5.954;2023-12-04T03:22:18;100761.31;;;-0.27;100.00
67931;BME280;63902;52.000;5.954;2023-12-04T03:23:18;100759.59;;;-0.28;100.00
67931;BME280;63902;52.000;5.954;2023-12-04T03:24:19;100763.03;;;-0.29;100.00
67931;BME280;63902;52.000;5.954;2023-12-04T03:25:20;100766.50;;;-0.28;100.00
67931;BME280;63902;52.000;5.954;2023-12-04T03:26:21;100767.41;;;-0.28;100.00
67931;BME280;63902;52.000;5.954;2023-12-04T03:27:21;100760.44;;;-0.27;100.00
67931;BME280;63902;52.000;5.954;2023-12-04T03:28:22;100757.84;;;-0.27;100.00
67931;BME280;63902;52.000;5.954;2023-12-04T03:29:22;100754.38;;;-0.28;100.00
67931;BME280;63902;52.000;5.954;2023-12-04T03:30:23;100751.75;;;-0.31;100.00
67931;BME280;63902;52.000;5.954;2023-12-04T03:31:24;100760.44;;;-0.27;100.00
67931;BME280;63902;52.000;5.954;2023-12-04T03:32:25;100758.69;;;-0.27;100.00
67931;BME280;63902;52.000;5.954;2023-12-04T03:33:25;100751.75;;;-0.28;100.00
67931;BME280;63902;52.000;5.954;2023-12-04T03:34:26;100745.66;;;-0.27;100.00
67931;BME280;63902;52.000;5.954;2023-12-04T03:35:27;100751.75;;;-0.25;100.00
67931;BME280;63902;52.000;5.954;2023-12-04T03:36:27;100755.22;;;-0.24;100.00
67931;BME280;63902;52.000;5.954;2023-12-04T03:37:27;100753.50;;;-0.25;100.00
67931;BME280;63902;52.000;5.954;2023-12-04T03:38:28;100751.75;;;-0.25;100.00
67931;BME280;63902;52.000;5.954;2023-12-04T03:39:28;100744.81;;;-0.27;100.00
67931;BME280;63902;52.000;5.954;2023-12-04T03:40:31;100751.75;;;-0.25;100.00
67931;BME280;63902;52.000;5.954;2023-12-04T03:41:32;100754.38;;;-0.25;100.00
67931;BME280;63902;52.000;5.954;2023-12-04T03:42:32;100752.63;;;-0.24;100.00
67931;BME280;63902;52.000;5.954;2023-12-04T03:43:32;100744.78;;;-0.26;100.00
67931;BME280;63902;52.000;5.954;2023-12-04T03:44:33;100742.19;;;-0.27;100.00
67931;BME280;63902;52.000;5.954;2023-12-04T03:45:33;100747.41;;;-0.24;100.00
67931;BME280;63902;52.000;5.954;2023-12-04T03:46:34;100743.06;;;-0.24;100.00
67931;BME280;63902;52.000;5.954;2023-12-04T03:47:34;100737.00;;;-0.27;100.00
67931;BME280;63902;52.000;5.954;2023-12-04T03:48:35;100739.59;;;-0.24;100.00
67931;BME280;63902;52.000;5.954;2023-12-04T03:49:35;100736.97;;;-0.26;100.00
67931;BME280;63902;52.000;5.954;2023-12-04T03:50:36;100739.59;;;-0.24;100.00
67931;BME280;63902;52.000;5.954;2023-12-04T03:51:36;100740.47;;;-0.24;100.00
67931;BME280;63902;52.000;5.954;2023-12-04T03:52:37;100731.75;;;-0.23;100.00
67931;BME280;63902;52.000;5.954;2023-12-04T03:53:37;100730.91;;;-0.23;100.00
67931;BME280;63902;52.000;5.954;2023-12-04T03:54:38;100731.78;;;-0.24;100.00
67931;BME280;63902;52.000;5.954;2023-12-04T03:55:39;100730.06;;;-0.25;100.00
67931;BME280;63902;52.000;5.954;2023-12-04T03:56:40;100730.03;;;-0.24;100.00
67931;BME280;63902;52.000;5.954;2023-12-04T03:57:41;100722.22;;;-0.24;100.00
67931;BME280;63902;52.000;5.954;2023-12-04T03:58:41;100723.97;;;-0.24;100.00
67931;BME280;63902;52.000;5.954;2023-12-04T03:59:43;100730.91;;;-0.21;100.00
67931;BME280;63902;52.000;5.954;2023-12-04T04:00:44;100722.22;;;-0.20;100.00
67931;BME280;63902;52.000;5.954;2023-12-04T04:01:44;100725.69;;;-0.21;100.00
67931;BME280;63902;52.000;5.954;2023-12-04T04:02:44;100723.09;;;-0.25;100.00
67931;BME280;63902;52.000;5.954;2023-12-04T04:03:45;100725.69;;;-0.23;100.00
67931;BME280;63902;52.000;5.954;2023-12-04T04:04:45;100732.63;;;-0.24;100.00
67931;BME280;63902;52.000;5.954;2023-12-04T04:05:46;100729.16;;;-0.23;100.00
67931;BME280;63902;52.000;5.954;2023-12-04T04:06:46;100724.81;;;-0.24;100.00
67931;BME280;63902;52.000;5.954;2023-12-04T04:07:47;100711.78;;;-0.27;100.00
67931;BME280;63902;52.000;5.954;2023-12-04T04:08:47;100719.59;;;-0.24;100.00
67931;BME280;63902;52.000;5.954;2023-12-04T04:09:48;100716.97;;;-0.28;100.00
67931;BME280;63902;52.000;5.954;2023-12-04T04:10:49;100719.59;;;-0.27;100.00
67931;BME280;63902;52.000;5.954;2023-12-04T04:11:50;100723.06;;;-0.26;100.00
67931;BME280;63902;52.000;5.954;2023-12-04T04:12:50;100716.97;;;-0.28;100.00
67931;BME280;63902;52.000;5.954;2023-12-04T04:13:51;100715.28;;;-0.28;100.00
67931;BME280;63902;52.000;5.954;2023-12-04T04:14:51;100715.28;;;-0.28;100.00
67931;BME280;63902;52.000;5.954;2023-12-04T04:15:52;100716.13;;;-0.29;100.00
67931;BME280;63902;52.000;5.954;2023-12-04T04:16:53;100703.09;;;-0.35;100.00
67931;BME280;63902;52.000;5.954;2023-12-04T04:17:54;100710.91;;;-0.29;100.00
67931;BME280;63902;52.000;5.954;2023-12-04T04:18:54;100710.91;;;-0.29;100.00
67931;BME280;63902;52.000;5.954;2023-12-04T04:19:55;100706.56;;;-0.30;100.00
67931;BME280;63902;52.000;5.954;2023-12-04T04:20:55;100712.66;;;-0.31;100.00
67931;BME280;63902;52.000;5.954;2023-12-04T04:21:56;100714.41;;;-0.30;100.00
67931;BME280;63902;52.000;5.954;2023-12-04T04:22:56;100705.69;;;-0.32;100.00
67931;BME280;63902;52.000;5.954;2023-12-04T04:23:56;100705.69;;;-0.32;100.00
67931;BME280;63902;52.000;5.954;2023-12-04T04:24:57;100703.09;;;-0.32;100.00
67931;BME280;63902;52.000;5.954;2023-12-04T04:25:59;100704.84;;;-0.31;100.00
67931;BME280;63902;52.000;5.954;2023-12-04T04:26:59;100703.09;;;-0.30;100.00
67931;BME280;63902;52.000;5.954;2023-12-04T04:28:00;100703.09;;;-0.30;100.00
67931;BME280;63902;52.000;5.954;2023-12-04T04:29:00;100698.75;;;-0.30;100.00
67931;BME280;63902;52.000;5.954;2023-12-04T04:30:01;100699.63;;;-0.28;100.00
67931;BME280;63902;52.000;5.954;2023-12-04T04:31:02;100694.44;;;-0.28;100.00
67931;BME280;63902;52.000;5.954;2023-12-04T04:32:03;100688.34;;;-0.30;100.00
67931;BME280;63902;52.000;5.954;2023-12-04T04:33:03;100684.84;;;-0.32;100.00
67931;BME280;63902;52.000;5.954;2023-12-04T04:34:04;100677.03;;;-0.35;100.00
67931;BME280;63902;52.000;5.954;2023-12-04T04:35:04;100689.19;;;-0.29;100.00
67931;BME280;63902;52.000;5.954;2023-12-04T04:36:06;100690.94;;;-0.30;100.00
67931;BME280;63902;52.000;5.954;2023-12-04T04:37:09;100683.13;;;-0.30;100.00
67931;BME280;63902;52.000;5.954;2023-12-04T04:38:09;100688.34;;;-0.30;100.00
67931;BME280;63902;52.000;5.954;2023-12-04T04:39:12;100670.09;;;-0.30;100.00
67931;BME280;63902;52.000;5.954;2023-12-04T04:40:13;100682.25;;;-0.29;100.00
67931;BME280;63902;52.000;5.954;2023-12-04T04:41:15;100680.50;;;-0.28;100.00
67931;BME280;63902;52.000;5.954;2023-12-04T04:42:15;100672.69;;;-0.30;100.00
67931;BME280;63902;52.000;5.954;2023-12-04T04:43:16;100680.50;;;-0.30;100.00
67931;BME280;63902;52.000;5.954;2023-12-04T04:44:16;100677.91;;;-0.30;100.00
67931;BME280;63902;52.000;5.954;2023-12-04T04:45:17;100679.63;;;-0.32;100.00
67931;BME280;63902;52.000;5.954;2023-12-04T04:46:17;100676.16;;;-0.32;100.00
67931;BME280;63902;52.000;5.954;2023-12-04T04:47:18;100679.63;;;-0.32;100.00
67931;BME280;63902;52.000;5.954;2023-12-04T04:48:18;100667.47;;;-0.31;100.00
67931;BME280;63902;52.000;5.954;2023-12-04T04:49:19;100662.28;;;-0.36;100.00
67931;BME280;63902;52.000;5.954;2023-12-04T04:50:19;100659.66;;;-0.36;100.00
67931;BME280;63902;52.000;5.954;2023-12-04T04:51:19;100672.69;;;-0.31;100.00
67931;BME280;63902;52.000;5.954;2023-12-04T04:52:20;100677.03;;;-0.30;100.00
67931;BME280;63902;52.000;5.954;2023-12-04T04:53:20;100675.28;;;-0.28;100.00
67931;BME280;63902;52.000;5.954;2023-12-04T04:54:21;100669.22;;;-0.27;100.00
67931;BME280;63902;52.000;5.954;2023-12-04T04:55:21;100666.63;;;-0.27;100.00
67931;BME280;63902;52.000;5.954;2023-12-04T04:56:23;100665.75;;;-0.28;100.00
67931;BME280;63902;52.000;5.954;2023-12-04T04:57:24;100669.22;;;-0.26;100.00
67931;BME280;63902;52.000;5.954;2023-12-04T04:58:24;100658.78;;;-0.32;100.00
67931;BME280;63902;52.000;5.954;2023-12-04T04:59:25;100670.97;;;-0.28;100.00
67931;BME280;63902;52.000;5.954;2023-12-04T05:00:25;100666.63;;;-0.30;100.00
67931;BME280;63902;52.000;5.954;2023-12-04T05:01:25;100668.38;;;-0.31;100.00
67931;BME280;63902;52.000;5.954;2023-12-04T05:02:26;100670.06;;;-0.31;100.00
67931;BME280;63902;52.000;5.954;2023-12-04T05:03:26;100665.75;;;-0.32;100.00
67931;BME280;63902;52.000;5.954;2023-12-04T05:04:27;100663.13;;;-0.34;100.00
67931;BME280;63902;52.000;5.954;2023-12-04T05:05:27;100655.31;;;-0.34;100.00
67931;BME280;63902;52.000;5.954;2023-12-04T05:06:28;100655.31;;;-0.34;100.00
67931;BME280;63902;52.000;5.954;2023-12-04T05:07:28;100664.00;;;-0.32;100.00
67931;BME280;63902;52.000;5.954;2023-12-04T05:08:29;100650.97;;;-0.35;100.00
67931;BME280;63902;52.000;5.954;2023-12-04T05:09:29;100655.31;;;-0.34;100.00
67931;BME280;63902;52.000;5.954;2023-12-04T05:10:30;100653.56;;;-0.32;100.00
67931;BME280;63902;52.000;5.954;2023-12-04T05:11:32;100651.84;;;-0.33;100.00
67931;BME280;63902;52.000;5.954;2023-12-04T05:12:32;100651.84;;;-0.33;100.00
67931;BME280;63902;52.000;5.954;2023-12-04T05:13:33;100664.00;;;-0.30;100.00